createdAt,value
2023-02-24T00:01:28.317Z,10.85
2023-02-24T00:03:58.952Z,10.85
2023-02-24T00:06:35.890Z,10.60
2023-02-24T00:09:08.166Z,11.25
2023-02-24T00:11:37.112Z,10.88
2023-02-24T00:14:06.670Z,11.90
2023-02-24T00:16:34.803Z,11.73
2023-02-24T00:19:04.013Z,10.85
2023-02-24T00:21:31.685Z,9.90
2023-02-24T00:24:00.218Z,10.25
2023-02-24T00:26:29.695Z,10.65
2023-02-24T00:28:59.941Z,10.75
2023-02-24T00:31:31.051Z,11.25
2023-02-24T00:34:00.488Z,11.48
2023-02-24T00:36:33.574Z,11.60
2023-02-24T00:39:09.115Z,11.80
2023-02-24T00:41:40.118Z,14.50
2023-02-24T00:44:14.298Z,15.40
2023-02-24T00:46:44.476Z,15.93
2023-02-24T00:49:17.001Z,16.20
2023-02-24T00:51:48.473Z,14.73
2023-02-24T00:54:18.725Z,15.93
2023-02-24T00:56:48.377Z,18.17
2023-02-24T00:59:18.540Z,15.57
2023-02-24T01:01:46.986Z,17.45
2023-02-24T01:04:17.581Z,16.63
2023-02-24T01:06:49.585Z,17.40
2023-02-24T01:09:20.048Z,18.45
2023-02-24T01:12:03.876Z,16.55
2023-02-24T01:14:34.102Z,15.55
2023-02-24T01:17:02.730Z,16.17
2023-02-24T01:19:33.594Z,15.10
2023-02-24T01:22:07.453Z,14.48
2023-02-24T01:24:38.018Z,15.95
2023-02-24T01:27:07.922Z,16.13
2023-02-24T01:29:39.311Z,17.13
2023-02-24T01:32:13.514Z,18.48
2023-02-24T01:34:42.494Z,16.08
2023-02-24T01:37:16.133Z,18.02
2023-02-24T01:39:45.036Z,17.55
2023-02-24T01:42:16.963Z,18.88
2023-02-24T01:45:06.781Z,18.98
2023-02-24T01:47:34.785Z,17.80
2023-02-24T01:50:02.962Z,18.05
2023-02-24T01:52:35.292Z,18.73
2023-02-24T01:55:09.094Z,19.77
2023-02-24T01:57:39.394Z,19.38
2023-02-24T02:00:11.795Z,20.38
2023-02-24T02:02:46.284Z,20.80
2023-02-24T02:05:15.982Z,17.58
2023-02-24T02:07:46.688Z,19.95
2023-02-24T02:10:14.879Z,19.00
2023-02-24T02:12:45.057Z,20.45
2023-02-24T02:15:15.362Z,19.33
2023-02-24T02:17:52.159Z,18.42
2023-02-24T02:20:42.413Z,18.40
2023-02-24T02:23:32.096Z,17.35
2023-02-24T02:26:19.942Z,19.23
2023-02-24T02:29:08.430Z,19.25
2023-02-24T02:31:55.233Z,19.33
2023-02-24T02:34:34.123Z,20.58
2023-02-24T02:37:08.553Z,18.33
2023-02-24T02:39:48.866Z,19.90
2023-02-24T02:42:29.948Z,17.85
2023-02-24T02:45:05.330Z,18.25
2023-02-24T02:47:40.492Z,18.25
2023-02-24T02:50:18.724Z,18.27
2023-02-24T02:52:54.769Z,19.63
2023-02-24T02:55:30.486Z,18.55
2023-02-24T02:58:01.021Z,20.05
2023-02-24T03:00:35.042Z,20.58
2023-02-24T03:03:12.551Z,19.00
2023-02-24T03:05:50.330Z,19.42
2023-02-24T03:08:23.662Z,18.65
2023-02-24T03:10:53.426Z,19.02
2023-02-24T03:13:25.455Z,20.13
2023-02-24T03:15:54.673Z,19.58
2023-02-24T03:18:28.973Z,19.13
2023-02-24T03:21:07.436Z,22.05
2023-02-24T03:23:38.847Z,19.00
2023-02-24T03:26:17.175Z,21.42
2023-02-24T03:28:54.279Z,17.50
2023-02-24T03:31:28.551Z,19.17
2023-02-24T03:34:08.967Z,19.95
2023-02-24T03:36:38.086Z,18.02
2023-02-24T03:39:11.102Z,19.48
2023-02-24T03:41:47.717Z,21.85
2023-02-24T03:44:15.825Z,21.20
2023-02-24T03:46:44.211Z,20.08
2023-02-24T03:49:16.489Z,20.38
2023-02-24T03:51:59.576Z,20.50
2023-02-24T03:54:44.852Z,20.92
2023-02-24T03:57:24.487Z,19.88
2023-02-24T04:00:25.633Z,17.90
2023-02-24T04:03:04.216Z,19.23
2023-02-24T04:05:40.048Z,21.05
2023-02-24T04:08:10.607Z,20.15
2023-02-24T04:10:52.278Z,19.45
2023-02-24T04:13:35.131Z,21.00
2023-02-24T04:16:16.808Z,19.95
2023-02-24T04:18:49.903Z,19.60
2023-02-24T04:21:21.256Z,17.90
2023-02-24T04:23:53.109Z,22.48
2023-02-24T04:26:24.786Z,19.48
2023-02-24T04:28:57.010Z,18.48
2023-02-24T04:31:27.183Z,19.05
2023-02-24T04:33:55.165Z,20.98
2023-02-24T04:36:34.002Z,19.90
2023-02-24T04:39:04.901Z,19.95
2023-02-24T04:41:32.663Z,20.90
2023-02-24T04:44:01.606Z,21.55
2023-02-24T04:46:32.504Z,19.88
2023-02-24T04:49:02.055Z,19.17
2023-02-24T04:51:32.607Z,20.42
2023-02-24T04:54:01.415Z,23.52
2023-02-24T04:56:30.647Z,18.20
2023-02-24T04:58:58.384Z,22.35
2023-02-24T05:01:26.125Z,22.75
2023-02-24T05:03:53.807Z,19.95
2023-02-24T05:06:21.891Z,22.92
2023-02-24T05:08:53.493Z,23.85
2023-02-24T05:11:21.483Z,20.63
2023-02-24T05:13:51.213Z,23.08
2023-02-24T05:16:20.613Z,23.05
2023-02-24T05:18:48.391Z,22.15
2023-02-24T05:21:31.715Z,23.92
2023-02-24T05:24:06.164Z,20.75
2023-02-24T05:26:35.748Z,20.48
2023-02-24T05:29:06.735Z,21.58
2023-02-24T05:31:34.720Z,22.70
2023-02-24T05:34:08.429Z,21.50
2023-02-24T05:36:40.372Z,22.92
2023-02-24T05:39:12.212Z,20.95
2023-02-24T05:41:41.975Z,20.67
2023-02-24T05:44:13.586Z,19.45
2023-02-24T05:46:44.409Z,21.08
2023-02-24T05:49:14.856Z,20.30
2023-02-24T05:51:54.259Z,23.15
2023-02-24T05:54:25.883Z,22.20
2023-02-24T05:56:53.592Z,21.40
2023-02-24T05:59:22.753Z,20.05
2023-02-24T06:01:53.835Z,19.83
2023-02-24T06:04:27.805Z,21.30
2023-02-24T06:06:55.493Z,21.13
2023-02-24T06:09:23.959Z,22.63
2023-02-24T06:11:51.999Z,19.90
2023-02-24T06:14:21.301Z,19.38
2023-02-24T06:16:50.910Z,19.98
2023-02-24T06:19:18.612Z,21.70
2023-02-24T06:21:46.343Z,21.92
2023-02-24T06:24:17.875Z,20.25
2023-02-24T06:26:46.396Z,22.33
2023-02-24T06:29:15.498Z,22.05
2023-02-24T06:31:44.589Z,21.00
2023-02-24T06:34:14.727Z,20.48
2023-02-24T06:36:42.999Z,24.70
2023-02-24T06:39:14.335Z,19.17
2023-02-24T06:41:42.685Z,21.25
2023-02-24T06:44:10.612Z,23.27
2023-02-24T06:46:38.551Z,21.55
2023-02-24T06:49:06.226Z,21.25
2023-02-24T06:51:35.362Z,20.63
2023-02-24T06:54:03.041Z,21.60
2023-02-24T06:56:32.440Z,20.15
2023-02-24T06:59:01.126Z,22.10
2023-02-24T07:01:29.786Z,22.70
2023-02-24T07:04:17.538Z,23.05
2023-02-24T07:06:49.341Z,21.88
2023-02-24T07:09:19.258Z,24.23
2023-02-24T07:11:52.130Z,20.27
2023-02-24T07:14:22.092Z,20.95
2023-02-24T07:16:53.993Z,20.23
2023-02-24T07:19:24.756Z,18.95
2023-02-24T07:21:59.984Z,20.90
2023-02-24T07:24:36.059Z,22.10
2023-02-24T07:27:06.224Z,22.70
2023-02-24T07:29:37.531Z,22.10
2023-02-24T07:32:08.418Z,24.85
2023-02-24T07:34:40.908Z,23.67
2023-02-24T07:37:12.256Z,21.70
2023-02-24T07:39:42.925Z,23.15
2023-02-24T07:42:14.798Z,22.05
2023-02-24T07:44:46.333Z,22.90
2023-02-24T07:47:16.769Z,20.85
2023-02-24T07:49:45.183Z,28.17
2023-02-24T07:52:16.054Z,22.30
2023-02-24T07:54:45.856Z,20.60
2023-02-24T07:57:14.644Z,23.98
2023-02-24T07:59:48.743Z,23.23
2023-02-24T08:02:18.941Z,24.02
2023-02-24T08:04:53.429Z,24.80
2023-02-24T08:07:26.008Z,22.17
2023-02-24T08:10:09.189Z,21.40
2023-02-24T08:12:42.473Z,24.38
2023-02-24T08:15:19.271Z,20.90
2023-02-24T08:17:47.762Z,22.73
2023-02-24T08:20:22.925Z,22.35
2023-02-24T08:22:54.368Z,26.70
2023-02-24T08:25:24.118Z,24.33
2023-02-24T08:28:08.299Z,24.00
2023-02-24T08:30:40.414Z,23.52
2023-02-24T08:33:13.459Z,24.88
2023-02-24T08:35:44.376Z,24.67
2023-02-24T08:38:20.000Z,23.30
2023-02-24T08:40:53.709Z,23.90
2023-02-24T08:43:32.496Z,21.40
2023-02-24T08:46:05.628Z,23.85
2023-02-24T08:48:38.973Z,21.67
2023-02-24T08:51:15.228Z,20.63
2023-02-24T08:53:46.456Z,20.33
2023-02-24T08:56:23.973Z,20.85
2023-02-24T08:58:56.851Z,23.92
2023-02-24T09:01:29.614Z,26.60
2023-02-24T09:04:00.048Z,21.98
2023-02-24T09:06:37.672Z,21.63
2023-02-24T09:09:21.476Z,22.55
2023-02-24T09:11:55.650Z,22.98
2023-02-24T09:14:28.576Z,24.83
2023-02-24T09:17:12.791Z,24.98
2023-02-24T09:20:02.213Z,19.38
2023-02-24T09:22:31.808Z,21.90
2023-02-24T09:25:21.705Z,21.00
2023-02-24T09:27:55.574Z,20.08
2023-02-24T09:30:41.639Z,24.20
2023-02-24T09:33:17.692Z,25.95
2023-02-24T09:35:47.786Z,23.30
2023-02-24T09:38:17.527Z,22.60
2023-02-24T09:40:49.728Z,22.65
2023-02-24T09:43:21.556Z,24.40
2023-02-24T09:45:58.063Z,26.92
2023-02-24T09:48:34.003Z,24.13
2023-02-24T09:51:05.165Z,22.45
2023-02-24T09:53:52.393Z,22.00
2023-02-24T09:56:32.592Z,22.75
2023-02-24T09:59:12.327Z,21.40
2023-02-24T10:01:46.563Z,26.40
2023-02-24T10:04:28.469Z,23.38
2023-02-24T10:07:02.880Z,20.10
2023-02-24T10:09:35.303Z,21.48
2023-02-24T10:12:13.585Z,24.50
2023-02-24T10:14:51.102Z,24.48
2023-02-24T10:17:24.492Z,21.45
2023-02-24T10:19:59.921Z,22.02
2023-02-24T10:22:39.858Z,23.30
2023-02-24T10:25:26.114Z,21.98
2023-02-24T10:28:03.992Z,21.95
2023-02-24T10:30:43.501Z,22.45
2023-02-24T10:33:25.236Z,20.63
2023-02-24T10:36:08.955Z,21.60
2023-02-24T10:38:38.187Z,21.23
2023-02-24T10:41:09.805Z,21.48
2023-02-24T10:43:45.875Z,22.50
2023-02-24T10:46:40.012Z,23.25
2023-02-24T10:49:16.200Z,22.52
2023-02-24T10:51:52.151Z,21.48
2023-02-24T10:54:36.051Z,20.63
2023-02-24T10:57:15.531Z,21.50
2023-02-24T11:00:19.099Z,21.10
2023-02-24T11:03:06.948Z,20.95
2023-02-24T11:05:44.216Z,20.20
2023-02-24T11:08:36.447Z,21.33
2023-02-24T11:11:27.614Z,21.20
2023-02-24T11:14:10.921Z,20.20
2023-02-24T11:16:59.486Z,18.08
2023-02-24T11:19:30.120Z,20.50
2023-02-24T11:21:58.187Z,20.20
2023-02-24T11:24:26.243Z,22.42
2023-02-24T11:26:54.173Z,19.25
2023-02-24T11:29:35.637Z,20.38
2023-02-24T11:32:22.061Z,20.25
2023-02-24T11:34:55.263Z,19.55
2023-02-24T11:37:37.158Z,21.50
2023-02-24T11:40:12.784Z,21.30
2023-02-24T11:42:46.280Z,20.52
2023-02-24T11:45:22.960Z,17.83
2023-02-24T11:47:56.283Z,19.85
2023-02-24T11:50:33.873Z,19.30
2023-02-24T11:53:08.844Z,20.25
2023-02-24T11:55:42.325Z,17.73
2023-02-24T11:58:15.553Z,19.48
2023-02-24T12:00:51.940Z,18.73
2023-02-24T12:03:29.281Z,17.35
2023-02-24T12:06:02.268Z,17.95
2023-02-24T12:08:34.498Z,17.98
2023-02-24T12:11:07.905Z,18.77
2023-02-24T12:13:40.709Z,15.68
2023-02-24T12:16:15.141Z,17.10
2023-02-24T12:18:49.097Z,13.23
2023-02-24T12:21:23.041Z,14.60
2023-02-24T12:23:54.041Z,11.25
2023-02-24T12:26:26.412Z,11.57
2023-02-24T12:29:10.634Z,11.90
2023-02-24T12:31:53.200Z,12.43
2023-02-24T12:34:33.486Z,12.10
2023-02-24T12:37:16.575Z,10.25
2023-02-24T12:39:54.304Z,10.73
2023-02-24T12:42:29.462Z,11.70
2023-02-24T12:45:04.875Z,12.40
2023-02-24T12:47:45.748Z,12.02
2023-02-24T12:50:28.958Z,12.05
2023-02-24T12:53:06.342Z,12.60
2023-02-24T12:55:44.792Z,12.05
2023-02-24T12:58:22.576Z,13.00
2023-02-24T13:01:00.852Z,11.18
2023-02-24T13:03:40.351Z,12.30
2023-02-24T13:06:17.886Z,12.82
2023-02-24T13:08:58.294Z,11.10
2023-02-24T13:11:38.569Z,11.85
2023-02-24T13:14:14.915Z,13.57
2023-02-24T13:16:42.790Z,14.68
2023-02-24T13:19:21.240Z,11.75
2023-02-24T13:22:01.474Z,12.30
2023-02-24T13:24:29.394Z,13.02
2023-02-24T13:27:06.911Z,12.05
2023-02-24T13:29:44.910Z,12.10
2023-02-24T13:32:28.349Z,12.10
2023-02-24T13:34:57.475Z,13.95
2023-02-24T13:37:31.937Z,13.90
2023-02-24T13:40:16.307Z,17.02
2023-02-24T13:42:46.933Z,14.05
2023-02-24T13:45:21.569Z,15.30
2023-02-24T13:48:06.933Z,13.95
2023-02-24T13:50:41.543Z,16.38
2023-02-24T13:53:27.893Z,17.50
2023-02-24T13:56:09.702Z,16.42
2023-02-24T13:58:52.403Z,14.48
2023-02-24T14:01:22.513Z,15.52
2023-02-24T14:04:06.785Z,15.90
2023-02-24T14:06:36.477Z,17.33
2023-02-24T14:09:07.279Z,17.73
2023-02-24T14:11:38.303Z,15.15
2023-02-24T14:14:06.849Z,18.30
2023-02-24T14:16:39.628Z,17.10
2023-02-24T14:19:16.092Z,20.70
2023-02-24T14:21:50.358Z,16.25
2023-02-24T14:24:20.264Z,19.38
2023-02-24T14:26:51.291Z,16.60
2023-02-24T14:29:25.248Z,19.85
2023-02-24T14:31:55.277Z,19.38
2023-02-24T14:34:25.845Z,18.52
2023-02-24T14:36:56.933Z,20.25
2023-02-24T14:39:27.535Z,23.45
2023-02-24T14:42:11.165Z,21.40
2023-02-24T14:44:42.750Z,19.38
2023-02-24T14:47:14.126Z,15.13
2023-02-24T14:49:41.955Z,28.67
2023-02-24T14:52:15.250Z,26.60
2023-02-24T14:54:50.500Z,16.45
2023-02-24T14:57:23.947Z,21.38
2023-02-24T14:59:55.748Z,16.45
2023-02-24T15:02:29.704Z,18.48
2023-02-24T15:04:58.511Z,18.65
2023-02-24T15:07:29.540Z,21.40
2023-02-24T15:09:59.312Z,16.83
2023-02-24T15:12:32.320Z,16.98
2023-02-24T15:15:03.523Z,17.00
2023-02-24T15:17:32.323Z,12.77
2023-02-24T15:20:00.134Z,18.05
2023-02-24T15:22:29.523Z,16.00
2023-02-24T15:25:19.158Z,13.88
2023-02-24T15:27:52.363Z,15.40
2023-02-24T15:30:29.921Z,17.70
2023-02-24T15:33:06.376Z,17.40
2023-02-24T15:35:37.541Z,19.92
2023-02-24T15:38:06.057Z,19.60
2023-02-24T15:40:35.651Z,19.58
2023-02-24T15:43:11.699Z,19.55
2023-02-24T15:45:40.930Z,22.77
2023-02-24T15:48:22.493Z,19.90
2023-02-24T15:50:50.970Z,19.75
2023-02-24T15:53:18.833Z,24.90
2023-02-24T15:55:51.695Z,23.70
2023-02-24T15:58:23.036Z,24.63
2023-02-24T16:00:52.835Z,21.95
2023-02-24T16:03:21.810Z,23.92
2023-02-24T16:05:49.604Z,23.80
2023-02-24T16:08:19.920Z,23.05
2023-02-24T16:10:50.283Z,22.98
2023-02-24T16:13:22.236Z,23.45
2023-02-24T16:15:51.838Z,24.58
2023-02-24T16:18:22.826Z,23.20
2023-02-24T16:20:54.159Z,22.50
2023-02-24T16:23:22.939Z,23.08
2023-02-24T16:25:56.351Z,26.15
2023-02-24T16:28:24.605Z,21.80
2023-02-24T16:30:53.447Z,22.17
2023-02-24T16:33:23.305Z,19.10
2023-02-24T16:35:53.146Z,18.17
2023-02-24T16:38:22.524Z,19.20
2023-02-24T16:40:52.382Z,20.20
2023-02-24T16:43:20.235Z,21.67
2023-02-24T16:45:48.640Z,21.15
2023-02-24T16:48:22.285Z,19.10
2023-02-24T16:50:50.341Z,18.02
2023-02-24T16:53:20.152Z,19.02
2023-02-24T16:55:49.956Z,19.15
2023-02-24T16:58:19.967Z,17.70
2023-02-24T17:00:49.855Z,23.88
2023-02-24T17:03:21.225Z,22.75
2023-02-24T17:05:49.544Z,23.27
2023-02-24T17:08:19.465Z,18.38
2023-02-24T17:10:49.779Z,23.52
2023-02-24T17:13:20.957Z,20.90
2023-02-24T17:15:54.931Z,16.33
2023-02-24T17:18:23.246Z,16.95
2023-02-24T17:20:51.254Z,14.18
2023-02-24T17:23:20.237Z,13.85
2023-02-24T17:25:51.023Z,14.80
2023-02-24T17:28:20.326Z,16.90
2023-02-24T17:30:48.134Z,14.35
2023-02-24T17:33:16.108Z,16.58
2023-02-24T17:35:46.842Z,15.02
2023-02-24T17:38:16.321Z,14.45
2023-02-24T17:40:46.027Z,14.60
2023-02-24T17:43:13.975Z,14.90
2023-02-24T17:45:44.855Z,15.57
2023-02-24T17:48:14.409Z,14.68
2023-02-24T17:50:42.704Z,12.70
2023-02-24T17:53:10.518Z,14.38
2023-02-24T17:55:38.223Z,14.20
2023-02-24T17:58:06.076Z,13.02
2023-02-24T18:00:33.781Z,13.45
2023-02-24T18:03:03.655Z,12.35
2023-02-24T18:05:31.512Z,13.85
2023-02-24T18:07:59.837Z,14.15
2023-02-24T18:10:27.740Z,15.07
2023-02-24T18:12:59.166Z,14.40
2023-02-24T18:15:26.834Z,13.05
2023-02-24T18:17:54.563Z,14.45
2023-02-24T18:20:23.651Z,14.60
2023-02-24T18:22:51.302Z,16.42
2023-02-24T18:25:19.116Z,17.33
2023-02-24T18:27:46.794Z,15.68
2023-02-24T18:30:17.642Z,14.13
2023-02-24T18:32:45.785Z,14.10
2023-02-24T18:35:15.791Z,15.02
2023-02-24T18:37:44.989Z,13.80
2023-02-24T18:40:14.171Z,15.27
2023-02-24T18:42:43.529Z,15.18
2023-02-24T18:45:11.687Z,13.10
2023-02-24T18:47:39.406Z,13.93
2023-02-24T18:50:08.079Z,14.75
2023-02-24T18:52:36.154Z,14.75
2023-02-24T18:55:05.513Z,14.40
2023-02-24T18:57:33.227Z,14.43
2023-02-24T19:00:00.927Z,14.48
2023-02-24T19:02:29.913Z,14.27
2023-02-24T19:04:57.657Z,13.85
2023-02-24T19:07:25.542Z,14.65
2023-02-24T19:09:53.435Z,13.43
2023-02-24T19:12:22.481Z,13.77
2023-02-24T19:14:52.159Z,14.43
2023-02-24T19:17:20.010Z,14.20
2023-02-24T19:19:47.794Z,14.90
2023-02-24T19:22:15.499Z,13.35
2023-02-24T19:24:43.281Z,13.30
2023-02-24T19:27:10.974Z,13.20
2023-02-24T19:29:40.070Z,13.90
2023-02-24T19:32:07.883Z,13.18
2023-02-24T19:34:35.830Z,15.57
2023-02-24T19:37:03.596Z,13.55
2023-02-24T19:39:31.329Z,14.98
2023-02-24T19:41:59.097Z,12.75
2023-02-24T19:44:26.809Z,12.35
2023-02-24T19:46:55.861Z,13.18
2023-02-24T19:49:23.565Z,12.55
2023-02-24T19:51:54.442Z,16.75
2023-02-24T19:54:22.900Z,12.95
2023-02-24T19:56:52.258Z,14.80
2023-02-24T19:59:19.967Z,13.95
2023-02-24T20:01:51.571Z,12.50
2023-02-24T20:04:21.116Z,15.43
2023-02-24T20:06:49.645Z,13.65
2023-02-24T20:09:21.167Z,13.45
2023-02-24T20:11:50.475Z,14.20
2023-02-24T20:14:20.636Z,15.13
2023-02-24T20:16:48.876Z,17.67
2023-02-24T20:19:17.933Z,15.63
2023-02-24T20:21:47.325Z,16.05
2023-02-24T20:24:17.202Z,15.73
2023-02-24T20:26:47.999Z,16.23
2023-02-24T20:29:16.411Z,17.73
2023-02-24T20:31:44.707Z,18.35
2023-02-24T20:34:14.274Z,15.50
2023-02-24T20:36:43.595Z,13.40
2023-02-24T20:39:14.289Z,15.10
2023-02-24T20:41:42.688Z,11.55
2023-02-24T20:44:11.044Z,14.57
2023-02-24T20:46:38.847Z,12.80
2023-02-24T20:49:08.627Z,11.57
2023-02-24T20:51:37.931Z,13.85
2023-02-24T20:54:05.973Z,11.90
2023-02-24T20:56:38.005Z,14.05
2023-02-24T20:59:08.951Z,13.23
2023-02-24T21:01:37.314Z,12.93
2023-02-24T21:04:05.562Z,13.50
2023-02-24T21:06:33.883Z,12.45
2023-02-24T21:09:01.855Z,13.70
2023-02-24T21:11:31.103Z,12.63
2023-02-24T21:14:00.608Z,15.57
2023-02-24T21:16:30.189Z,14.45
2023-02-24T21:18:58.690Z,13.13
2023-02-24T21:21:26.724Z,13.55
2023-02-24T21:23:55.097Z,12.00
2023-02-24T21:26:24.638Z,12.15
2023-02-24T21:28:57.313Z,13.48
2023-02-24T21:31:28.175Z,12.95
2023-02-24T21:33:56.879Z,15.05
2023-02-24T21:36:26.046Z,14.85
2023-02-24T21:38:54.435Z,12.50
2023-02-24T21:41:23.944Z,14.02
2023-02-24T21:43:54.543Z,12.07
2023-02-24T21:46:24.405Z,13.90
2023-02-24T21:48:56.103Z,13.60
2023-02-24T21:51:25.646Z,14.00
2023-02-24T21:53:55.981Z,13.60
2023-02-24T21:56:25.401Z,12.95
2023-02-24T21:58:55.094Z,12.73
2023-02-24T22:01:25.264Z,16.95
2023-02-24T22:04:07.596Z,14.82
2023-02-24T22:06:37.613Z,12.52
2023-02-24T22:09:07.799Z,13.40
2023-02-24T22:11:38.272Z,14.57
2023-02-24T22:14:08.068Z,14.05
2023-02-24T22:16:35.889Z,13.90
2023-02-24T22:19:05.362Z,12.93
2023-02-24T22:21:33.976Z,13.45
2023-02-24T22:24:04.367Z,13.75
2023-02-24T22:26:33.257Z,11.88
2023-02-24T22:29:02.692Z,12.20
2023-02-24T22:31:32.422Z,10.90
2023-02-24T22:34:00.810Z,12.27
2023-02-24T22:36:31.399Z,13.63
2023-02-24T22:39:00.540Z,13.00
2023-02-24T22:41:30.970Z,11.80
2023-02-24T22:43:59.130Z,12.40
2023-02-24T22:46:29.074Z,12.15
2023-02-24T22:48:57.407Z,12.73
2023-02-24T22:51:26.467Z,12.32
2023-02-24T22:53:56.127Z,15.07
2023-02-24T22:56:26.374Z,12.27
2023-02-24T22:58:54.227Z,12.88
2023-02-24T23:01:24.605Z,11.00
2023-02-24T23:04:05.799Z,12.35
2023-02-24T23:06:35.422Z,11.40
2023-02-24T23:09:05.633Z,12.23
2023-02-24T23:11:35.512Z,10.00
2023-02-24T23:14:06.772Z,13.55
2023-02-24T23:16:35.839Z,11.15
2023-02-24T23:19:05.327Z,10.40
2023-02-24T23:21:35.132Z,11.25
2023-02-24T23:24:04.860Z,11.48
2023-02-24T23:26:33.778Z,10.80
2023-02-24T23:29:01.988Z,11.63
2023-02-24T23:31:30.165Z,9.57
2023-02-24T23:33:57.999Z,7.85
2023-02-24T23:36:26.204Z,7.05
2023-02-24T23:38:54.012Z,9.23
2023-02-24T23:41:23.024Z,8.00
2023-02-24T23:43:50.789Z,9.68
2023-02-24T23:46:18.567Z,8.93
2023-02-24T23:48:46.648Z,8.95
2023-02-24T23:51:16.112Z,10.07
2023-02-24T23:53:45.541Z,10.15
2023-02-24T23:56:17.121Z,8.82
2023-02-24T23:58:50.032Z,9.00
